Time;durP1;ratioP1;P1;durP2;ratioP2;P2;SDS_P1;SDS_P2;PMS_P1;PMS_P2;Temp;Humidity;BMP_temperature;BMP_pressure;BME280_temperature;BME280_humidity;BME280_pressure;Samples;Min_cycle;Max_cycle;Signal;HPM_P1;HPM_P2
2021/12/01 00:01:35;;;;;;;;;6.50;5.00;;;;;10.08;68.74;100394.31;4993096;28;45977;-68
2021/12/01 00:04:01;;;;;;;;;4.50;3.00;;;;;10.13;68.90;100391.38;4968075;28;46673;-70
2021/12/01 00:06:27;;;;;;;;;5.75;5.00;;;;;10.08;68.90;100401.44;4975878;28;45308;-70
2021/12/01 00:08:53;;;;;;;;;6.33;5.00;;;;;10.10;69.49;100388.91;4992685;28;45426;-67
2021/12/01 00:11:18;;;;;;;;;5.33;5.33;;;;;10.13;68.45;100380.75;4978404;28;47393;-68
2021/12/01 00:13:44;;;;;;;;;6.00;5.25;;;;;10.07;68.30;100373.16;4993312;28;45284;-67
2021/12/01 00:16:09;;;;;;;;;5.75;5.50;;;;;10.05;69.46;100359.97;4975581;28;45364;-68
2021/12/01 00:18:35;;;;;;;;;5.50;5.00;;;;;10.02;69.37;100345.03;4972501;28;45497;-66
2021/12/01 00:21:00;;;;;;;;;3.00;3.00;;;;;10.12;68.90;100356.00;4969524;28;47143;-65
2021/12/01 00:23:26;;;;;;;;;5.00;5.00;;;;;10.08;69.22;100333.22;4992727;28;45418;-65
2021/12/01 00:25:53;;;;;;;;;5.67;5.67;;;;;10.08;68.66;100338.53;4992979;28;45517;-66
2021/12/01 00:28:19;;;;;;;;;6.00;5.33;;;;;10.09;69.60;100323.44;4992472;27;45441;-67
2021/12/01 00:30:45;;;;;;;;;5.00;1.00;;;;;10.13;68.82;100309.00;4992745;28;45425;-68
2021/12/01 00:33:17;;;;;;;;;5.00;5.00;;;;;10.08;68.93;100296.00;4974517;28;45762;-66
2021/12/01 00:35:44;;;;;;;;;6.00;6.00;;;;;10.16;69.60;100292.91;4984501;27;45469;-70
2021/12/01 00:38:10;;;;;;;;;5.00;3.00;;;;;10.17;68.93;100281.34;5023985;27;45417;-67
2021/12/01 00:40:36;;;;;;;;;6.00;5.00;;;;;10.13;69.25;100258.53;4989306;27;46096;-68
2021/12/01 00:43:01;;;;;;;;;4.00;3.00;;;;;10.13;69.00;100247.91;4993068;28;45240;-67
2021/12/01 00:45:31;;;;;;;;;8.00;7.00;;;;;10.14;70.21;100263.75;4975451;28;45679;-68
2021/12/01 00:47:56;;;;;;;;;7.25;6.00;;;;;10.15;69.12;100256.63;4992774;28;45519;-69
2021/12/01 00:50:28;;;;;;;;;5.00;5.00;;;;;10.07;69.83;100233.19;4974850;28;46807;-66
2021/12/01 00:52:57;;;;;;;;;2.00;2.00;;;;;10.12;69.28;100238.22;4992911;28;45296;-68
2021/12/01 00:55:23;;;;;;;;;4.33;4.33;;;;;10.13;69.57;100219.53;4992843;27;45540;-67
2021/12/01 00:57:52;;;;;;;;;8.00;5.00;;;;;10.17;69.01;100212.25;4984526;27;45521;-67
2021/12/01 01:00:20;;;;;;;;;4.67;3.00;;;;;10.14;69.51;100207.09;4992116;28;45455;-68
2021/12/01 01:02:46;;;;;;;;;5.67;3.00;;;;;10.09;69.33;100194.09;4973753;28;45541;-66
2021/12/01 01:05:12;;;;;;;;;7.00;5.33;;;;;10.18;70.01;100219.25;4992191;27;45422;-70
2021/12/01 01:07:37;;;;;;;;;3.00;3.00;;;;;10.12;69.89;100206.34;4992588;28;45469;-66
2021/12/01 01:10:16;;;;;;;;;5.00;5.00;;;;;10.15;69.34;100190.19;4992316;27;46445;-68
2021/12/01 01:18:11;;;;;;;;;2.00;2.00;;;;;10.19;68.94;100165.16;4986637;28;45263;-67
2021/12/01 01:20:36;;;;;;;;;2.00;2.00;;;;;10.21;69.07;100168.59;4994893;27;45310;-67
2021/12/01 01:23:02;;;;;;;;;5.00;2.33;;;;;10.02;68.47;100143.13;4975931;28;45348;-66
2021/12/01 01:25:28;;;;;;;;;2.00;2.00;;;;;10.20;68.67;100166.88;4991170;27;45342;-67
2021/12/01 01:27:54;;;;;;;;;2.00;1.00;;;;;10.17;68.27;100151.13;4977784;28;45714;-67
2021/12/01 01:30:20;;;;;;;;;2.00;2.00;;;;;10.15;69.41;100147.69;4990792;27;45673;-70
2021/12/01 01:32:46;;;;;;;;;2.67;2.67;;;;;10.18;69.89;100148.38;4976964;28;45731;-69
2021/12/01 01:35:13;;;;;;;;;4.67;3.00;;;;;10.17;69.09;100136.03;4994988;27;45334;-67
2021/12/01 01:37:39;;;;;;;;;1.33;1.33;;;;;10.19;69.49;100135.94;4987492;28;45626;-66
2021/12/01 01:40:06;;;;;;;;;2.00;1.00;;;;;10.11;69.42;100107.16;4994325;27;45323;-69
2021/12/01 01:42:32;;;;;;;;;2.00;2.00;;;;;10.22;69.41;100133.13;4973846;28;45566;-66
2021/12/01 01:44:57;;;;;;;;;3.00;1.33;;;;;10.18;69.77;100108.50;4958520;28;45236;-68
2021/12/01 01:47:23;;;;;;;;;5.00;5.00;;;;;10.16;69.93;100112.22;4960231;28;45435;-66
2021/12/01 01:49:55;;;;;;;;;2.00;2.00;;;;;10.10;69.80;100109.91;4977114;28;46679;-66
2021/12/01 01:52:21;;;;;;;;;3.00;3.00;;;;;10.16;70.10;100112.22;4974701;28;45361;-70
2021/12/01 01:54:47;;;;;;;;;5.00;3.00;;;;;10.05;70.07;100081.84;4977879;28;45256;-66
2021/12/01 01:57:12;;;;;;;;;2.00;2.00;;;;;10.07;69.64;100081.75;4961250;28;45326;-66
2021/12/01 01:59:37;;;;;;;;;3.00;1.00;;;;;10.16;69.78;100106.91;4973468;28;45460;-66
2021/12/01 02:02:04;;;;;;;;;5.33;3.00;;;;;10.12;70.44;100097.41;4972282;28;45486;-67
2021/12/01 02:04:33;;;;;;;;;3.67;3.67;;;;;10.17;70.10;100096.19;4966233;28;45241;-67
2021/12/01 02:06:59;;;;;;;;;2.00;2.00;;;;;10.09;69.87;100086.97;4993233;28;45514;-68
2021/12/01 02:09:25;;;;;;;;;6.00;5.00;;;;;10.15;70.99;100090.06;4977333;28;46177;-68
2021/12/01 02:11:56;;;;;;;;;2.00;2.00;;;;;10.15;69.43;100081.25;4995049;28;45441;-68
2021/12/01 02:14:23;;;;;;;;;3.00;3.00;;;;;10.15;70.36;100068.81;4995374;28;45467;-68
2021/12/01 02:16:49;;;;;;;;;3.67;3.00;;;;;10.12;70.79;100058.38;4995176;27;45509;-65
2021/12/01 02:19:15;;;;;;;;;2.33;2.00;;;;;10.02;70.62;100046.63;4977081;28;46250;-68
2021/12/01 02:21:41;;;;;;;;;4.33;1.00;;;;;10.16;69.69;100048.44;4972754;27;45947;-66
2021/12/01 02:24:10;;;;;;;;;2.00;2.00;;;;;10.13;71.13;100048.63;5003479;28;45465;-68
2021/12/01 02:26:40;;;;;;;;;2.00;2.00;;;;;10.12;70.57;100029.16;4983155;28;45451;-65
2021/12/01 02:29:09;;;;;;;;;4.33;4.33;;;;;10.12;71.23;100047.75;4993190;28;46645;-68
2021/12/01 02:31:36;;;;;;;;;5.00;3.00;;;;;10.10;71.23;100032.88;4994185;28;45461;-65
2021/12/01 02:34:09;;;;;;;;;2.00;2.00;;;;;10.13;70.97;100035.34;4994504;27;45409;-66
2021/12/01 02:36:36;;;;;;;;;3.00;3.00;;;;;10.14;71.75;100029.91;5041730;27;45174;-66
2021/12/01 02:39:06;;;;;;;;;2.00;2.00;;;;;10.09;71.08;100015.22;5054038;27;45395;-68
2021/12/01 02:41:33;;;;;;;;;1.25;1.25;;;;;10.15;71.49;100014.81;4988925;27;45359;-67
2021/12/01 02:44:00;;;;;;;;;4.33;3.00;;;;;10.16;71.59;100011.25;4984529;28;45327;-66
2021/12/01 02:46:27;;;;;;;;;3.00;3.00;;;;;10.03;73.47;99997.88;4995204;27;45486;-68
2021/12/01 02:48:53;;;;;;;;;7.50;5.00;;;;;9.99;73.45;99983.91;4975376;28;47220;-70
2021/12/01 02:51:23;;;;;;;;;5.33;5.00;;;;;10.00;72.75;99980.31;4994324;28;45434;-68
2021/12/01 02:53:48;;;;;;;;;10.33;5.67;;;;;9.87;73.48;99947.50;4994328;28;45481;-66
2021/12/01 02:56:16;;;;;;;;;6.33;6.33;;;;;9.91;73.69;99966.78;4994054;28;45551;-67
2021/12/01 02:58:43;;;;;;;;;3.00;3.00;;;;;9.89;74.38;99955.38;4992739;27;46530;-66
2021/12/01 03:01:16;;;;;;;;;3.00;3.00;;;;;9.76;73.31;99928.75;4976792;28;45454;-67
2021/12/01 03:03:41;;;;;;;;;4.33;4.33;;;;;9.78;73.34;99918.91;4976460;28;45398;-67
2021/12/01 03:06:08;;;;;;;;;5.00;5.00;;;;;9.76;74.12;99902.19;4994523;27;45409;-68
2021/12/01 03:08:35;;;;;;;;;2.33;2.33;;;;;9.84;73.81;99915.00;4993333;27;47176;-69
2021/12/01 03:11:01;;;;;;;;;6.33;5.67;;;;;9.81;73.53;99897.44;4993947;28;45382;-70
2021/12/01 03:13:27;;;;;;;;;5.00;5.00;;;;;9.82;74.15;99896.50;4973637;28;45366;-68
2021/12/01 03:15:54;;;;;;;;;2.75;2.75;;;;;9.87;74.20;99899.69;4971145;28;45177;-67
2021/12/01 03:18:20;;;;;;;;;3.00;3.00;;;;;9.87;74.06;99894.38;5001946;28;45261;-66
2021/12/01 03:20:48;;;;;;;;;2.00;2.00;;;;;9.86;73.61;99898.00;4993900;28;45343;-68
2021/12/01 03:23:15;;;;;;;;;3.75;3.00;;;;;9.82;74.27;99883.22;4976080;28;45285;-69
2021/12/01 03:25:41;;;;;;;;;4.00;2.25;;;;;9.92;73.77;99892.31;4994521;28;45448;-65
2021/12/01 03:28:07;;;;;;;;;2.50;1.75;;;;;9.84;73.51;99862.72;4993046;28;45481;-68
2021/12/01 03:30:36;;;;;;;;;2.00;2.00;;;;;9.90;74.16;99883.59;4975977;28;45400;-65
2021/12/01 03:33:03;;;;;;;;;3.00;2.00;;;;;9.82;73.60;99864.63;4978317;28;45390;-66
2021/12/01 03:35:28;;;;;;;;;3.00;1.00;;;;;9.86;74.66;99862.63;4993184;27;45501;-68
2021/12/01 03:37:54;;;;;;;;;2.33;2.33;;;;;9.80;74.27;99855.06;4988826;28;46622;-66
2021/12/01 03:40:19;;;;;;;;;2.00;1.00;;;;;9.83;75.13;99854.84;4993758;28;45512;-68
2021/12/01 03:42:45;;;;;;;;;3.00;1.00;;;;;9.86;74.05;99844.88;4993482;27;45547;-69
2021/12/01 03:45:13;;;;;;;;;0.33;0.33;;;;;9.87;75.33;99857.22;4994565;27;45668;-67
2021/12/01 03:47:38;;;;;;;;;2.00;2.00;;;;;9.87;75.36;99827.13;4992218;27;46135;-66
2021/12/01 03:50:05;;;;;;;;;1.00;1.00;;;;;9.78;76.21;99815.34;4976792;28;45302;-67
2021/12/01 03:52:30;;;;;;;;;1.67;1.67;;;;;9.85;76.84;99821.09;4994315;27;45421;-66
2021/12/01 03:54:57;;;;;;;;;1.00;1.00;;;;;9.69;76.56;99773.44;4994130;28;45651;-69
2021/12/01 03:57:22;;;;;;;;;0.00;0.00;;;;;9.72;76.79;99789.16;4976073;28;47402;-65
2021/12/01 03:59:48;;;;;;;;;2.50;2.50;;;;;9.70;78.05;99785.75;4992836;28;45534;-69
2021/12/01 04:02:13;;;;;;;;;1.33;1.33;;;;;9.68;77.59;99785.03;4992816;28;45653;-64
2021/12/01 04:04:39;;;;;;;;;3.00;1.67;;;;;9.72;78.55;99778.53;4993086;27;45580;-65
2021/12/01 04:07:05;;;;;;;;;1.00;1.00;;;;;9.71;77.89;99760.91;4998327;27;46548;-66
2021/12/01 04:09:32;;;;;;;;;1.00;1.00;;;;;9.70;79.02;99753.91;4992203;27;45477;-67
2021/12/01 04:11:57;;;;;;;;;1.00;1.00;;;;;9.69;77.56;99741.59;4993843;28;45253;-67
2021/12/01 04:14:23;;;;;;;;;2.33;1.00;;;;;9.65;79.36;99742.75;4993459;28;45230;-65
2021/12/01 04:16:50;;;;;;;;;3.00;1.50;;;;;9.61;79.44;99739.41;4992758;28;46105;-66
2021/12/01 04:19:15;;;;;;;;;1.25;1.00;;;;;9.59;78.75;99728.06;4992504;28;45261;-67
2021/12/01 04:21:41;;;;;;;;;2.00;1.75;;;;;9.62;79.90;99724.34;4989884;27;45316;-66
2021/12/01 04:24:07;;;;;;;;;5.00;1.00;;;;;9.60;79.34;99718.28;4994455;27;45596;-65
2021/12/01 04:26:33;;;;;;;;;3.50;2.00;;;;;9.54;79.91;99702.78;4991668;27;47146;-68
2021/12/01 04:29:00;;;;;;;;;0.00;0.00;;;;;9.63;80.62;99704.81;4993086;27;45361;-65
2021/12/01 04:31:28;;;;;;;;;1.67;1.00;;;;;9.68;79.84;99708.03;4993037;28;45439;-66
2021/12/01 04:33:55;;;;;;;;;1.00;1.00;;;;;9.65;79.75;99698.47;4992771;27;45381;-64
2021/12/01 04:36:21;;;;;;;;;5.00;3.00;;;;;9.62;80.11;99692.47;4997464;27;48356;-66
2021/12/01 04:38:46;;;;;;;;;1.25;1.25;;;;;9.52;80.19;99671.03;4974799;28;45494;-65
2021/12/01 04:41:14;;;;;;;;;1.67;1.67;;;;;9.53;80.68;99661.28;4992592;28;45538;-66
2021/12/01 04:43:40;;;;;;;;;1.67;1.00;;;;;9.58;80.59;99669.75;4989038;28;45520;-69
2021/12/01 04:46:06;;;;;;;;;5.00;2.00;;;;;9.54;80.75;99662.97;4977561;28;47382;-67
2021/12/01 04:48:32;;;;;;;;;5.00;2.00;;;;;9.56;79.48;99655.75;4996115;27;45263;-66
2021/12/01 04:50:59;;;;;;;;;1.00;1.00;;;;;9.45;80.37;99636.06;4995772;28;45505;-65
2021/12/01 04:53:26;;;;;;;;;2.00;2.00;;;;;9.46;80.41;99636.91;4978252;28;45635;-65
2021/12/01 04:55:53;;;;;;;;;1.50;1.50;;;;;9.39;80.81;99609.09;4989658;27;45414;-68
2021/12/01 04:58:19;;;;;;;;;4.75;3.00;;;;;9.49;81.06;99638.50;4995674;27;45421;-66
2021/12/01 05:00:46;;;;;;;;;2.00;1.00;;;;;9.37;80.33;99609.19;4990465;27;45343;-67
2021/12/01 05:03:11;;;;;;;;;1.00;1.00;;;;;9.44;81.18;99610.50;4988385;27;45247;-65
2021/12/01 05:05:37;;;;;;;;;0.50;0.00;;;;;9.40;80.59;99598.38;4976706;28;46017;-65
2021/12/01 05:08:02;;;;;;;;;1.00;1.00;;;;;9.40;81.25;99593.06;4996004;27;45205;-67
2021/12/01 05:10:28;;;;;;;;;0.67;0.67;;;;;9.42;80.69;99592.97;4995572;27;45224;-66
2021/12/01 05:12:53;;;;;;;;;1.00;1.00;;;;;9.10;80.93;99552.66;4977746;28;45335;-65
2021/12/01 05:15:19;;;;;;;;;0.00;0.00;;;;;9.27;82.89;99586.91;4995451;28;45433;-65
2021/12/01 05:17:44;;;;;;;;;0.00;0.00;;;;;9.23;84.30;99585.38;4993490;27;45244;-68
2021/12/01 05:20:11;;;;;;;;;1.00;1.00;;;;;9.30;83.48;99602.59;4995865;28;45455;-68
2021/12/01 05:22:37;;;;;;;;;0.00;0.00;;;;;9.23;83.24;99572.09;4995741;27;45450;-67
2021/12/01 05:25:03;;;;;;;;;1.00;1.00;;;;;9.30;82.59;99588.47;4995410;27;46315;-67
2021/12/01 05:27:29;;;;;;;;;0.33;0.33;;;;;9.28;82.13;99562.06;4974788;28;45803;-67
2021/12/01 05:29:54;;;;;;;;;1.00;0.75;;;;;9.31;81.76;99569.81;4982074;27;45318;-68
2021/12/01 05:32:20;;;;;;;;;0.00;0.00;;;;;9.20;82.04;99556.41;4994741;28;45624;-68
2021/12/01 05:34:46;;;;;;;;;0.00;0.00;;;;;9.31;81.83;99572.47;4994087;27;45494;-66
2021/12/01 05:37:12;;;;;;;;;0.00;0.00;;;;;9.18;82.07;99544.19;5002279;28;45419;-65
2021/12/01 05:39:41;;;;;;;;;0.00;0.00;;;;;9.30;82.73;99560.16;4995226;28;45665;-65
2021/12/01 05:42:08;;;;;;;;;0.00;0.00;;;;;9.21;82.15;99536.88;4995903;27;46012;-66
2021/12/01 05:44:34;;;;;;;;;0.00;0.00;;;;;9.32;80.96;99546.78;4995976;27;46216;-64
2021/12/01 05:47:00;;;;;;;;;0.00;0.00;;;;;9.33;81.71;99537.84;4989470;27;46102;-66
2021/12/01 05:49:26;;;;;;;;;0.00;0.00;;;;;9.32;82.23;99537.00;4994946;27;45481;-66
2021/12/01 05:51:53;;;;;;;;;0.00;0.00;;;;;9.34;81.70;99545.72;4995356;27;45358;-64
2021/12/01 05:54:19;;;;;;;;;0.00;0.00;;;;;9.32;81.65;99537.00;4977146;28;48087;-66
2021/12/01 05:56:44;;;;;;;;;0.00;0.00;;;;;9.22;82.06;99514.69;4994488;28;45238;-66
2021/12/01 05:59:10;;;;;;;;;0.00;0.00;;;;;9.29;81.69;99521.31;4975592;28;45315;-66
2021/12/01 06:01:35;;;;;;;;;0.00;0.00;;;;;9.34;82.30;99507.72;4966955;28;45601;-65
2021/12/01 06:04:01;;;;;;;;;0.00;0.00;;;;;9.45;82.13;99521.94;4990886;28;45382;-68
2021/12/01 06:06:27;;;;;;;;;1.00;0.00;;;;;9.47;81.94;99508.56;4984583;27;45505;-69
2021/12/01 06:08:52;;;;;;;;;0.00;0.00;;;;;9.42;82.06;99498.28;5080405;27;45346;-68
2021/12/01 06:11:20;;;;;;;;;0.00;0.00;;;;;9.46;82.12;99502.41;4991385;28;46816;-65
2021/12/01 06:13:47;;;;;;;;;0.00;0.00;;;;;9.47;81.86;99482.03;5042106;27;45541;-65
2021/12/01 06:16:12;;;;;;;;;0.00;0.00;;;;;9.50;81.29;99494.25;4980019;28;45550;-66
2021/12/01 06:18:38;;;;;;;;;0.00;0.00;;;;;9.54;81.18;99479.81;4999102;27;45405;-65
2021/12/01 06:21:03;;;;;;;;;0.00;0.00;;;;;9.54;82.23;99477.16;5015015;27;45260;-66
2021/12/01 06:23:29;;;;;;;;;0.00;0.00;;;;;9.47;82.08;99450.19;5014161;27;45404;-66
2021/12/01 06:25:54;;;;;;;;;1.00;0.00;;;;;9.60;81.76;99463.47;4982618;28;45434;-62
2021/12/01 06:28:20;;;;;;;;;0.00;0.00;;;;;9.66;81.91;99471.00;4981334;27;45497;-65
2021/12/01 06:30:45;;;;;;;;;0.00;0.00;;;;;9.61;82.35;99450.06;4961708;28;45400;-65
2021/12/01 06:33:11;;;;;;;;;0.00;0.00;;;;;9.61;82.00;99457.19;4983484;27;46067;-68
2021/12/01 06:35:36;;;;;;;;;0.00;0.00;;;;;9.48;81.98;99429.81;4994060;27;45453;-67
2021/12/01 06:38:03;;;;;;;;;0.00;0.00;;;;;9.70;82.11;99456.56;5114463;27;45310;-65
2021/12/01 06:40:29;;;;;;;;;1.00;1.00;;;;;9.75;82.05;99460.56;5052308;27;45635;-69
2021/12/01 06:42:54;;;;;;;;;0.00;0.00;;;;;9.74;81.70;99447.41;4980254;27;47796;-66
2021/12/01 06:45:20;;;;;;;;;0.00;0.00;;;;;9.73;80.96;99432.44;4979797;27;45476;-67
2021/12/01 06:47:46;;;;;;;;;0.00;0.00;;;;;9.74;81.17;99424.34;4990972;27;45422;-68
2021/12/01 06:50:13;;;;;;;;;0.00;0.00;;;;;9.86;81.04;99430.59;4991133;27;45345;-65
2021/12/01 06:52:39;;;;;;;;;0.00;0.00;;;;;9.88;80.79;99439.31;4962775;28;46360;-63
2021/12/01 06:55:08;;;;;;;;;0.75;0.75;;;;;9.89;81.72;99438.34;4976373;28;45552;-64
2021/12/01 06:57:34;;;;;;;;;0.67;0.00;;;;;9.92;81.30;99438.16;4989970;27;45571;-66
2021/12/01 07:00:00;;;;;;;;;0.00;0.00;;;;;9.95;81.05;99421.13;4994924;27;45379;-68
2021/12/01 07:02:26;;;;;;;;;1.33;1.33;;;;;9.83;81.64;99414.03;4970837;27;47052;-67
2021/12/01 07:04:52;;;;;;;;;0.00;0.00;;;;;9.96;81.93;99423.69;5019711;27;46823;-69
2021/12/01 07:07:18;;;;;;;;;0.00;0.00;;;;;10.02;81.56;99436.50;5008126;28;45327;-65
2021/12/01 07:09:46;;;;;;;;;1.00;0.00;;;;;10.04;82.44;99433.75;4995527;27;45410;-68
2021/12/01 07:12:12;;;;;;;;;2.00;0.00;;;;;10.01;81.60;99426.84;5062975;28;45998;-67
2021/12/01 07:14:38;;;;;;;;;0.00;0.00;;;;;9.94;82.34;99409.66;4981176;28;45447;-70
2021/12/01 07:17:05;;;;;;;;;1.00;0.00;;;;;10.01;82.75;99402.09;4992242;27;45591;-72
2021/12/01 07:19:30;;;;;;;;;1.00;0.00;;;;;10.06;81.86;99413.25;4987921;27;45535;-64
2021/12/01 07:21:56;;;;;;;;;0.00;0.00;;;;;10.11;82.16;99412.91;4992212;27;45547;-66
2021/12/01 07:24:21;;;;;;;;;0.00;0.00;;;;;10.13;82.03;99405.66;5029559;27;45380;-67
2021/12/01 07:26:47;;;;;;;;;0.00;0.00;;;;;10.20;82.29;99428.19;5024596;27;45895;-67
2021/12/01 07:29:13;;;;;;;;;0.00;0.00;;;;;10.20;81.68;99413.09;4994833;27;45667;-65
2021/12/01 07:31:38;;;;;;;;;0.00;0.00;;;;;10.23;82.15;99418.19;4990762;27;45508;-65
2021/12/01 07:34:04;;;;;;;;;0.00;0.00;;;;;10.22;82.51;99410.34;4982521;27;45593;-64
2021/12/01 07:36:29;;;;;;;;;0.00;0.00;;;;;9.98;81.44;99371.28;4996709;27;45641;-66
2021/12/01 07:38:57;;;;;;;;;0.00;0.00;;;;;10.34;81.29;99423.56;4986675;27;45484;-67
2021/12/01 07:41:23;;;;;;;;;0.33;0.00;;;;;10.35;82.14;99416.44;4981188;28;47223;-66
2021/12/01 07:43:48;;;;;;;;;0.00;0.00;;;;;10.39;80.85;99428.53;4989235;27;47019;-65
2021/12/01 07:46:14;;;;;;;;;1.00;0.00;;;;;10.43;81.43;99432.69;4974641;28;45442;-62
2021/12/01 07:48:40;;;;;;;;;0.00;0.00;;;;;10.44;80.78;99421.09;4990925;28;45453;-67
2021/12/01 07:51:05;;;;;;;;;0.00;0.00;;;;;10.48;80.65;99422.56;4992785;27;46268;-67
2021/12/01 07:53:31;;;;;;;;;0.00;0.00;;;;;10.54;81.14;99423.91;4993107;28;45390;-67
2021/12/01 07:55:57;;;;;;;;;0.00;0.00;;;;;10.54;80.47;99413.25;4993126;28;45435;-64
2021/12/01 07:58:22;;;;;;;;;0.00;0.00;;;;;10.64;80.35;99415.13;4994141;28;45255;-64
2021/12/01 08:00:48;;;;;;;;;0.00;0.00;;;;;10.66;80.15;99422.13;4982407;27;48103;-64
2021/12/01 08:03:13;;;;;;;;;0.00;0.00;;;;;10.69;79.80;99409.47;4968953;28;45620;-65
2021/12/01 08:05:39;;;;;;;;;0.00;0.00;;;;;10.71;79.98;99393.41;4981358;28;45876;-66
2021/12/01 08:08:05;;;;;;;;;0.00;0.00;;;;;10.77;79.61;99398.25;4992544;27;46233;-63
2021/12/01 08:10:31;;;;;;;;;0.00;0.00;;;;;10.77;79.89;99395.59;4981466;27;45692;-64
2021/12/01 08:13:00;;;;;;;;;0.67;0.67;;;;;10.78;79.60;99389.31;4984881;28;45483;-63
2021/12/01 08:15:25;;;;;;;;;0.00;0.00;;;;;10.80;79.27;99387.38;4991145;27;45446;-64
2021/12/01 08:17:51;;;;;;;;;0.00;0.00;;;;;10.83;78.98;99389.81;4974828;28;45533;-64
2021/12/01 08:20:17;;;;;;;;;0.00;0.00;;;;;10.88;79.09;99377.00;4979936;28;45502;-63
2021/12/01 08:22:42;;;;;;;;;1.00;0.00;;;;;10.89;79.18;99378.69;4973500;28;45401;-62
2021/12/01 08:25:08;;;;;;;;;0.00;0.00;;;;;10.84;79.08;99371.09;4984666;28;45446;-64
2021/12/01 08:27:33;;;;;;;;;0.00;0.00;;;;;10.85;78.46;99379.91;4998298;27;45610;-64
2021/12/01 08:30:00;;;;;;;;;0.33;0.00;;;;;10.86;78.69;99373.63;4981687;28;46343;-63
2021/12/01 08:32:25;;;;;;;;;0.00;0.00;;;;;10.84;79.13;99378.22;4969164;28;45259;-64
2021/12/01 08:34:51;;;;;;;;;0.00;0.00;;;;;10.91;78.84;99376.75;4980038;28;45462;-68
2021/12/01 08:37:19;;;;;;;;;0.33;0.00;;;;;10.98;78.51;99383.31;4977550;28;45516;-63
2021/12/01 08:39:45;;;;;;;;;1.67;0.00;;;;;10.93;78.52;99380.16;4973626;28;45339;-64
2021/12/01 08:42:12;;;;;;;;;0.00;0.00;;;;;11.04;78.40;99390.81;4956147;28;45389;-62
2021/12/01 08:44:49;;;;;;;;;0.00;0.00;;;;;11.10;77.99;99385.03;4978093;27;45474;-63
2021/12/01 08:47:16;;;;;;;;;0.67;0.33;;;;;11.21;77.45;99389.53;4968090;28;45516;-64
2021/12/01 08:49:43;;;;;;;;;0.00;0.00;;;;;11.19;77.37;99383.47;4983373;28;45513;-63
2021/12/01 08:52:09;;;;;;;;;0.00;0.00;;;;;11.17;76.90;99367.63;4987179;27;45483;-63
2021/12/01 08:54:35;;;;;;;;;1.33;0.00;;;;;11.21;76.73;99355.78;4976153;28;45482;-63
2021/12/01 08:57:00;;;;;;;;;0.00;0.00;;;;;11.31;76.50;99368.34;4975143;28;45367;-64
2021/12/01 08:59:26;;;;;;;;;0.00;0.00;;;;;11.26;76.52;99362.56;4979403;28;45361;-63
2021/12/01 09:01:51;;;;;;;;;0.00;0.00;;;;;11.33;76.21;99361.97;4985257;28;45348;-63
2021/12/01 09:04:18;;;;;;;;;0.00;0.00;;;;;11.28;75.74;99358.81;4963399;28;45460;-63
2021/12/01 09:06:44;;;;;;;;;1.00;0.00;;;;;11.46;76.24;99367.16;4974596;28;45652;-61
2021/12/01 09:09:09;;;;;;;;;2.33;0.00;;;;;11.56;75.21;99383.25;4972592;28;45535;-61
2021/12/01 09:11:35;;;;;;;;;1.00;1.00;;;;;11.61;74.21;99373.94;4974567;28;45472;-62
2021/12/01 09:14:00;;;;;;;;;0.00;0.00;;;;;11.64;73.76;99371.03;4983127;27;45236;-63
2021/12/01 09:16:27;;;;;;;;;0.00;0.00;;;;;11.68;73.36;99369.78;4985152;28;45660;-64
2021/12/01 09:18:53;;;;;;;;;1.67;1.67;;;;;11.72;75.49;99368.59;5014804;27;46199;-61
2021/12/01 09:21:21;;;;;;;;;1.00;1.00;;;;;11.90;74.19;99365.44;5032489;27;45454;-63
2021/12/01 09:23:46;;;;;;;;;0.67;0.67;;;;;12.00;73.15;99361.91;4982789;27;45454;-61
2021/12/01 09:26:11;;;;;;;;;0.67;0.67;;;;;12.13;73.53;99361.75;4975780;28;45498;-66
2021/12/01 09:28:37;;;;;;;;;0.67;0.67;;;;;12.14;72.57;99352.78;4985169;28;45378;-59
2021/12/01 09:31:03;;;;;;;;;2.33;1.00;;;;;12.25;72.02;99365.25;4992703;28;45471;-61
2021/12/01 09:33:32;;;;;;;;;0.00;0.00;;;;;12.29;72.01;99372.84;4978462;28;45445;-61
2021/12/01 09:35:57;;;;;;;;;0.00;0.00;;;;;12.30;71.77;99355.03;5000731;27;45545;-60
2021/12/01 09:38:23;;;;;;;;;0.00;0.00;;;;;12.40;70.29;99375.47;5099217;27;45756;-63
2021/12/01 09:40:53;;;;;;;;;2.00;1.00;;;;;12.42;71.18;99378.03;5081040;27;45361;-62
2021/12/01 09:43:25;;;;;;;;;2.00;0.00;;;;;12.49;70.97;99384.50;5081029;27;45350;-63
2021/12/01 09:45:51;;;;;;;;;0.00;0.00;;;;;12.46;69.80;99378.59;5004920;27;45503;-62
2021/12/01 09:48:17;;;;;;;;;0.67;0.67;;;;;12.50;69.93;99388.03;4975794;28;45442;-58
2021/12/01 09:50:42;;;;;;;;;0.00;0.00;;;;;12.53;69.41;99379.81;4975208;28;45276;-61
2021/12/01 09:53:08;;;;;;;;;1.00;0.00;;;;;12.55;70.15;99384.03;4975515;28;45601;-58
2021/12/01 09:55:34;;;;;;;;;0.00;0.00;;;;;12.59;69.88;99395.28;4961717;27;45371;-54
2021/12/01 09:58:07;;;;;;;;;2.00;0.67;;;;;12.65;68.54;99400.13;4994770;27;45987;-56
2021/12/01 10:00:35;;;;;;;;;0.67;0.00;;;;;12.69;68.20;99397.06;4994539;28;45453;-55
2021/12/01 10:03:02;;;;;;;;;0.00;0.00;;;;;12.58;68.60;99404.25;4978741;27;45468;-54
2021/12/01 10:05:46;;;;;;;;;0.67;0.00;;;;;12.67;68.67;99391.00;4957938;28;45686;-52
2021/12/01 10:08:24;;;;;;;;;0.00;0.00;;;;;12.66;68.92;99402.66;4975100;28;45383;-57
2021/12/01 10:10:51;;;;;;;;;0.00;0.00;;;;;12.63;68.67;99386.03;4957768;28;45492;-51
2021/12/01 10:13:29;;;;;;;;;0.00;0.00;;;;;12.66;68.71;99397.31;4969935;28;45430;-54
2021/12/01 10:15:59;;;;;;;;;1.00;1.00;;;;;12.62;68.54;99408.34;5006454;28;45431;-54
2021/12/01 10:18:26;;;;;;;;;4.00;4.00;;;;;12.57;68.18;99413.22;4997025;27;46218;-53
2021/12/01 10:21:06;;;;;;;;;1.00;0.00;;;;;12.44;68.26;99415.22;4974945;28;45491;-53
2021/12/01 10:23:31;;;;;;;;;0.00;0.00;;;;;12.36;68.30;99422.00;4975199;28;45246;-54
2021/12/01 10:26:06;;;;;;;;;0.00;0.00;;;;;12.21;68.02;99412.59;4975356;28;45325;-56
2021/12/01 10:28:41;;;;;;;;;0.00;0.00;;;;;12.04;68.65;99416.66;4974701;28;46141;-52
2021/12/01 10:31:06;;;;;;;;;2.00;0.00;;;;;11.92;69.39;99406.97;4975060;28;45198;-56
2021/12/01 10:33:32;;;;;;;;;0.00;0.00;;;;;11.89;70.15;99419.69;4975167;28;45232;-57
2021/12/01 10:36:03;;;;;;;;;0.00;0.00;;;;;11.79;70.96;99415.09;4975589;28;45395;-55
2021/12/01 10:38:36;;;;;;;;;0.67;0.00;;;;;11.68;71.56;99409.75;4957202;28;45403;-55
2021/12/01 10:41:06;;;;;;;;;0.00;0.00;;;;;11.67;70.83;99421.38;4974627;28;45451;-52
2021/12/01 10:43:39;;;;;;;;;0.00;0.00;;;;;11.58;71.97;99407.94;4974416;28;45533;-53
2021/12/01 10:46:11;;;;;;;;;0.00;0.00;;;;;11.63;71.41;99419.94;4957351;28;45385;-54
2021/12/01 10:48:39;;;;;;;;;0.33;0.33;;;;;11.57;71.28;99412.41;4993961;27;45552;-53
2021/12/01 10:51:05;;;;;;;;;0.00;0.00;;;;;11.51;71.23;99418.22;4976762;28;45806;-52
2021/12/01 10:53:32;;;;;;;;;1.33;1.00;;;;;11.48;71.52;99407.81;4971770;27;45372;-56
2021/12/01 10:56:03;;;;;;;;;0.00;0.00;;;;;11.50;70.73;99416.53;4974937;28;45494;-55
2021/12/01 10:58:34;;;;;;;;;0.00;0.00;;;;;11.53;70.91;99421.63;4957115;28;45519;-54
2021/12/01 11:01:03;;;;;;;;;2.00;0.33;;;;;11.59;71.38;99414.94;4956752;28;45426;-54
2021/12/01 11:03:30;;;;;;;;;1.00;1.00;;;;;11.65;70.18;99409.16;4974350;28;45229;-53
2021/12/01 11:06:14;;;;;;;;;2.00;2.00;;;;;11.65;69.48;99412.66;4973212;28;45325;-54
2021/12/01 11:08:42;;;;;;;;;1.00;1.00;;;;;11.64;70.85;99408.31;4956490;28;46966;-56
2021/12/01 11:11:12;;;;;;;;;3.67;2.00;;;;;11.62;70.55;99409.41;4974547;28;45515;-55
2021/12/01 11:13:43;;;;;;;;;1.00;1.00;;;;;11.58;70.08;99395.47;4974191;28;45304;-55
2021/12/01 11:16:10;;;;;;;;;1.00;1.00;;;;;11.60;70.16;99404.19;4974775;28;45367;-52
2021/12/01 11:18:39;;;;;;;;;3.67;2.33;;;;;11.67;70.06;99402.72;4974119;28;45401;-52
2021/12/01 11:21:13;;;;;;;;;0.33;0.33;;;;;11.66;70.19;99398.38;4974003;28;45389;-53
2021/12/01 11:23:45;;;;;;;;;1.00;1.00;;;;;11.63;70.51;99393.28;4972642;28;45366;-53
2021/12/01 11:26:17;;;;;;;;;2.67;2.00;;;;;11.74;70.13;99398.63;4975444;28;45430;-54
2021/12/01 11:28:52;;;;;;;;;1.33;1.33;;;;;11.84;70.00;99396.06;4976705;28;48308;-55
2021/12/01 11:31:29;;;;;;;;;1.33;1.33;;;;;11.96;69.40;99396.91;4993832;28;45419;-53
2021/12/01 11:33:57;;;;;;;;;2.33;2.00;;;;;12.02;68.46;99391.09;4993755;28;45437;-55
2021/12/01 11:36:26;;;;;;;;;1.00;1.00;;;;;12.10;68.36;99389.50;4973303;28;45205;-54
2021/12/01 11:38:54;;;;;;;;;2.00;2.00;;;;;12.06;68.61;99379.22;4956806;28;45808;-55